KPRC/PRC METAR and TAF weather

Enter ICAO airport designator
Station Type Date Time Source
KPRC METAR 2021/05/12 00:53 UTC NOAA

KPRC 120053Z 27010KT 10SM CLR 24/M08 A3002 RMK AO2 SLP104 T02391078


Station Type Date Time Source
KPRC Decoded METAR 2021/05/12 00:53 UTC NOAA

PRESCOTT LOVE FIELD, AZ, United States (KPRC) 34-39N 112-25W 1524M
May 11, 2021 - 08:53 PM EDT / 2021.05.12 0053 UTC
Wind: from the W (270 degrees) at 12 MPH (10 KT):0
Visibility: 10 mile(s):0
Sky conditions: clear
Temperature: 75.0 F (23.9 C)
Dew Point: 18.0 F (-7.8 C)
Relative Humidity: 11%
Pressure (altimeter): 30.02 in. Hg (1016 hPa)
ob: KPRC 120053Z 27010KT 10SM CLR 24/M08 A3002 RMK AO2 SLP104 T02391078
cycle: 1

Station Type Date Time Source
KPRC TAF 2021/05/12 01:26 UTC NOAA

TAF
AMD KPRC 120124Z 1201/1224 24010KT P6SM SKC
FM120300 20009KT P6SM SKC
FM121800 35008G15KT P6SM SKC

Example: see airport list